METAR Data
IDs: Format: Raw Decoded Include TAF

Data at: 2017 UTC 13 Nov 2019

NZCH 132000Z AUTO 21015KT 9999 BKN014/// 13/10 Q0992 NOSIG
NZCH 131930Z AUTO 20014KT 9999 SCT010/// BKN014/// 12/10 Q0992 NOSIG
NZCH 131900Z AUTO 21012KT 9999 BKN009/// 11/10 Q0991 BECMG SCT009
NZCH 131830Z AUTO 22011KT 9999 BKN009/// 10/09 Q0991 BECMG SCT009
NZCH 131800Z AUTO 23013KT 9999 FEW012/// 10/09 Q0991 TEMPO BKN012
NZCH 131730Z AUTO 23012KT 9999 FEW080/// 11/10 Q0990 TEMPO BKN008

TAF NZCH 131705Z 1318/1418 22005KT 9999 -SHRA BKN030
  TEMPO 1318/1321 6000 SHRA BKN008
  FM132300 04010KT 9999 -SHRA SCT030
  PROB30
  TEMPO 1400/1407 5000 SHRAGS FEW030CB
  FM141100 26005KT 9999 SCT025
  BECMG 1415/1417 20010KT